Time;durP1;ratioP1;P1;durP2;ratioP2;P2;SDS_P1;SDS_P2;PMS_P1;PMS_P2;Temp;Humidity;BMP_temperature;BMP_pressure;BME280_temperature;BME280_humidity;BME280_pressure;Samples;Min_cycle;Max_cycle;Signal;HPM_P1;HPM_P2
2022/01/15 00:00:24;;;;;;;12.48;7.10;;;6.70;99.90;;;;;;4978421;28;20120;-74
2022/01/15 00:02:51;;;;;;;15.23;9.30;;;6.70;99.90;;;;;;4981373;28;20085;-74
2022/01/15 00:05:16;;;;;;;10.98;6.65;;;6.80;99.90;;;;;;4973585;28;20043;-75
2022/01/15 00:07:47;;;;;;;18.75;10.05;;;6.80;99.90;;;;;;4978271;28;20532;-74
2022/01/15 00:10:13;;;;;;;10.55;5.47;;;6.70;99.90;;;;;;4977169;28;20061;-74
2022/01/15 00:12:40;;;;;;;10.45;5.47;;;6.70;99.90;;;;;;4978302;28;20111;-74
2022/01/15 00:15:15;;;;;;;11.40;5.50;;;6.70;99.90;;;;;;4977833;28;20054;-74
2022/01/15 00:18:02;;;;;;;10.98;6.00;;;6.70;99.90;;;;;;4971727;28;20057;-74
2022/01/15 00:20:29;;;;;;;12.50;5.85;;;6.70;99.90;;;;;;4986453;28;20059;-74
2022/01/15 00:22:56;;;;;;;14.00;6.38;;;6.70;99.90;;;;;;4978235;28;20047;-74
2022/01/15 00:25:24;;;;;;;12.82;5.40;;;6.70;99.90;;;;;;4977458;28;20495;-74
2022/01/15 00:27:50;;;;;;;11.25;5.10;;;6.70;99.90;;;;;;5001840;28;20050;-74
2022/01/15 00:30:17;;;;;;;9.25;5.18;;;6.80;99.90;;;;;;4978696;28;20050;-74
2022/01/15 00:32:43;;;;;;;12.00;5.65;;;6.80;99.90;;;;;;4977458;28;20073;-74
2022/01/15 00:35:12;;;;;;;11.05;5.25;;;6.70;99.90;;;;;;5061463;28;20498;-74
2022/01/15 00:37:38;;;;;;;10.40;5.45;;;6.70;99.90;;;;;;4983779;28;20035;-74
2022/01/15 00:40:06;;;;;;;10.30;6.03;;;6.70;99.90;;;;;;4984317;28;20897;-74
2022/01/15 00:42:34;;;;;;;8.50;5.03;;;6.80;99.90;;;;;;4996158;28;20054;-74
2022/01/15 00:45:01;;;;;;;13.18;6.90;;;6.70;99.90;;;;;;4984403;28;20065;-74
2022/01/15 00:47:31;;;;;;;11.77;6.50;;;6.70;99.90;;;;;;4982199;28;20051;-74
2022/01/15 00:50:01;;;;;;;14.20;5.85;;;6.70;99.90;;;;;;4977424;28;20074;-74
2022/01/15 00:52:27;;;;;;;9.57;5.63;;;6.70;99.90;;;;;;4999634;28;20401;-74
2022/01/15 00:54:53;;;;;;;10.57;6.43;;;6.70;99.90;;;;;;4974796;28;20042;-74
2022/01/15 00:57:20;;;;;;;9.68;5.22;;;6.80;99.90;;;;;;5004581;28;20133;-74
2022/01/15 00:59:45;;;;;;;14.05;6.82;;;6.70;99.90;;;;;;4977667;28;20050;-74
2022/01/15 01:02:11;;;;;;;11.73;6.50;;;6.70;99.90;;;;;;4980239;28;20457;-74
2022/01/15 01:04:36;;;;;;;15.60;7.40;;;6.70;99.90;;;;;;4976649;28;20046;-74
2022/01/15 01:07:02;;;;;;;11.80;7.22;;;6.70;99.90;;;;;;4979126;28;20056;-74
2022/01/15 01:09:42;;;;;;;16.67;8.48;;;6.70;99.90;;;;;;4986358;28;20082;-74
2022/01/15 01:12:24;;;;;;;12.73;7.25;;;6.80;99.90;;;;;;4982328;28;20046;-74
2022/01/15 01:20:26;;;;;;;14.38;7.65;;;6.70;99.90;;;;;;4978058;28;20059;-74
2022/01/15 01:22:57;;;;;;;13.68;7.30;;;6.70;99.90;;;;;;4975076;28;20046;-74
2022/01/15 01:25:28;;;;;;;14.80;6.80;;;6.80;99.90;;;;;;4980312;28;20409;-74
2022/01/15 01:27:57;;;;;;;13.48;7.43;;;6.70;99.90;;;;;;4983458;28;20089;-74
2022/01/15 01:30:28;;;;;;;13.00;7.00;;;6.70;99.90;;;;;;4978867;28;20042;-74
2022/01/15 01:33:01;;;;;;;13.82;6.30;;;6.70;99.90;;;;;;4978178;28;20054;-74
2022/01/15 01:35:41;;;;;;;17.97;8.37;;;6.70;99.90;;;;;;4977629;28;20054;-74
2022/01/15 01:38:52;;;;;;;15.10;9.25;;;6.70;99.90;;;;;;4975524;28;20046;-75
2022/01/15 01:40:58;;;;;;;16.88;7.80;;;6.70;99.90;;;;;;4977903;28;20429;-74
2022/01/15 01:46:00;;;;;;;15.10;7.78;;;6.70;99.90;;;;;;4979741;28;20063;-74
2022/01/15 01:48:25;;;;;;;13.13;7.43;;;6.70;99.90;;;;;;4974454;28;20108;-74
2022/01/15 01:50:51;;;;;;;14.90;7.70;;;6.70;99.90;;;;;;4980923;28;20089;-74
2022/01/15 01:53:17;;;;;;;17.02;8.05;;;6.70;99.90;;;;;;4985918;28;20043;-74
2022/01/15 01:55:43;;;;;;;14.75;7.78;;;6.70;99.90;;;;;;4989539;28;20047;-74
2022/01/15 01:58:08;;;;;;;17.52;8.15;;;6.70;99.90;;;;;;5031978;28;20121;-74
2022/01/15 02:00:34;;;;;;;13.23;7.47;;;6.70;99.90;;;;;;4981756;28;20512;-74
2022/01/15 02:03:00;;;;;;;14.65;7.80;;;6.70;99.90;;;;;;4981566;28;20074;-74
2022/01/15 02:05:26;;;;;;;16.83;8.40;;;6.70;99.90;;;;;;4977609;28;20073;-74
2022/01/15 02:07:52;;;;;;;13.68;7.30;;;6.70;99.90;;;;;;4975936;28;20070;-74
2022/01/15 02:10:20;;;;;;;15.00;7.20;;;6.70;99.90;;;;;;4979547;28;20062;-75
2022/01/15 02:12:48;;;;;;;14.38;7.35;;;6.70;99.90;;;;;;4984529;28;20047;-74
2022/01/15 02:15:19;;;;;;;12.10;6.55;;;6.70;99.90;;;;;;4975288;28;20042;-74
2022/01/15 02:17:47;;;;;;;14.68;6.85;;;6.70;99.90;;;;;;4981586;28;20538;-74
2022/01/15 02:25:47;;;;;;;13.55;7.15;;;6.70;99.90;;;;;;4989104;28;20083;-74
2022/01/15 02:28:14;;;;;;;15.27;7.78;;;6.70;99.90;;;;;;4972400;28;20055;-74
2022/01/15 02:30:40;;;;;;;15.13;7.82;;;6.70;99.90;;;;;;4977223;28;20490;-74
2022/01/15 02:33:06;;;;;;;15.80;7.47;;;6.70;99.90;;;;;;4978066;28;20054;-74
2022/01/15 02:35:33;;;;;;;13.00;6.45;;;6.70;99.90;;;;;;4982312;28;20490;-74
2022/01/15 02:38:04;;;;;;;15.63;6.50;;;6.70;99.90;;;;;;4974786;28;20042;-74
2022/01/15 02:40:32;;;;;;;13.27;7.55;;;6.70;99.90;;;;;;4983390;28;20443;-74
2022/01/15 02:43:03;;;;;;;10.95;6.40;;;6.70;99.90;;;;;;4987836;28;20149;-74
2022/01/15 02:45:29;;;;;;;13.25;6.22;;;6.60;99.90;;;;;;4975359;28;20498;-74
2022/01/15 02:48:01;;;;;;;13.80;6.43;;;6.70;99.90;;;;;;4973042;28;20126;-75
2022/01/15 02:50:27;;;;;;;10.65;5.80;;;6.60;99.90;;;;;;4978900;28;20084;-74
2022/01/15 02:52:52;;;;;;;13.07;5.97;;;7.10;99.90;;;;;;4981331;28;20682;-74
2022/01/15 02:55:18;;;;;;;8.43;4.50;;;6.60;99.90;;;;;;4978919;28;20538;-74
2022/01/15 02:57:44;;;;;;;6.78;3.15;;;6.60;99.90;;;;;;4978763;28;20061;-74
2022/01/15 03:00:10;;;;;;;11.80;5.18;;;6.60;99.90;;;;;;4989367;28;20433;-74
2022/01/15 03:02:36;;;;;;;7.03;3.30;;;6.60;99.90;;;;;;4976302;28;20083;-74
2022/01/15 03:05:03;;;;;;;7.75;3.80;;;6.60;99.90;;;;;;4975182;28;20054;-74
2022/01/15 03:07:28;;;;;;;6.80;3.42;;;6.60;99.90;;;;;;4978226;28;20058;-74
2022/01/15 03:09:54;;;;;;;8.13;3.25;;;6.50;99.90;;;;;;4975581;28;20058;-74
2022/01/15 03:12:19;;;;;;;8.15;3.17;;;6.60;99.90;;;;;;4978768;28;20050;-74
2022/01/15 03:14:47;;;;;;;7.32;3.38;;;6.50;99.90;;;;;;4978451;28;20204;-74
2022/01/15 03:17:13;;;;;;;6.18;3.08;;;6.50;99.90;;;;;;4982686;28;20099;-75
2022/01/15 03:19:39;;;;;;;6.28;2.75;;;6.50;99.90;;;;;;4978570;28;20046;-74
2022/01/15 03:22:04;;;;;;;6.70;3.33;;;6.50;99.90;;;;;;4973761;28;20050;-75
2022/01/15 03:24:30;;;;;;;8.45;3.60;;;6.50;99.90;;;;;;4979631;28;20480;-74
2022/01/15 03:26:56;;;;;;;6.60;2.88;;;6.50;99.90;;;;;;4981421;28;20436;-74
2022/01/15 03:29:21;;;;;;;8.07;3.65;;;6.50;99.90;;;;;;4996790;28;20062;-75
2022/01/15 03:31:47;;;;;;;6.97;3.33;;;6.50;99.90;;;;;;4986783;28;20065;-74
2022/01/15 03:34:12;;;;;;;7.35;3.42;;;6.40;99.90;;;;;;4973199;28;20378;-74
2022/01/15 03:36:38;;;;;;;8.77;3.20;;;6.40;99.90;;;;;;4972849;28;20058;-74
2022/01/15 03:39:04;;;;;;;7.75;3.85;;;6.40;99.90;;;;;;4976276;28;20054;-74
2022/01/15 03:41:29;;;;;;;7.45;3.35;;;6.40;99.90;;;;;;4983126;28;20050;-74
2022/01/15 03:43:55;;;;;;;7.13;3.38;;;6.40;99.90;;;;;;4981695;28;20065;-74
2022/01/15 03:46:21;;;;;;;6.57;3.00;;;6.40;99.90;;;;;;4988332;28;20046;-75
2022/01/15 03:48:47;;;;;;;6.57;3.40;;;6.40;99.90;;;;;;4970904;28;20520;-75
2022/01/15 03:51:14;;;;;;;7.50;2.78;;;6.40;99.90;;;;;;4974844;28;20051;-74
2022/01/15 03:53:40;;;;;;;8.38;3.33;;;6.40;99.90;;;;;;4977334;28;20126;-74
2022/01/15 03:56:06;;;;;;;9.20;3.60;;;6.40;99.90;;;;;;4976369;28;20126;-74
2022/01/15 03:58:31;;;;;;;9.13;3.40;;;6.40;99.90;;;;;;5005527;28;20046;-74
2022/01/15 04:00:57;;;;;;;6.95;3.13;;;6.40;99.90;;;;;;4977694;28;20047;-74
2022/01/15 04:03:23;;;;;;;7.72;3.03;;;6.40;99.90;;;;;;4977377;28;20043;-74
2022/01/15 04:05:48;;;;;;;7.65;3.65;;;6.40;99.90;;;;;;4973771;28;20046;-74
2022/01/15 04:08:14;;;;;;;8.27;3.53;;;6.40;99.90;;;;;;4980448;28;20126;-74
2022/01/15 04:10:40;;;;;;;7.55;3.45;;;6.40;99.90;;;;;;4976892;28;20047;-74
2022/01/15 04:13:06;;;;;;;8.90;3.30;;;6.40;99.90;;;;;;4974247;28;20038;-74
2022/01/15 04:15:31;;;;;;;8.52;3.20;;;6.40;99.90;;;;;;4980292;28;20043;-74
2022/01/15 04:17:58;;;;;;;7.05;3.33;;;6.40;99.90;;;;;;4975067;28;20347;-74
2022/01/15 04:20:24;;;;;;;7.07;2.92;;;6.40;99.90;;;;;;4976181;28;20042;-74
2022/01/15 04:22:51;;;;;;;9.75;2.67;;;6.40;99.90;;;;;;4974262;28;20046;-74
2022/01/15 04:25:17;;;;;;;10.40;5.68;;;6.40;99.90;;;;;;4973772;28;20074;-74
2022/01/15 04:27:44;;;;;;;7.00;3.15;;;6.40;99.90;;;;;;4972609;28;20047;-74
2022/01/15 04:30:12;;;;;;;8.63;2.80;;;6.40;99.90;;;;;;4987247;28;20055;-74
2022/01/15 04:32:38;;;;;;;6.38;2.85;;;6.40;99.90;;;;;;4976300;28;20054;-74
2022/01/15 04:35:05;;;;;;;5.88;2.72;;;6.40;99.90;;;;;;4982647;28;20054;-74
2022/01/15 04:37:40;;;;;;;7.90;3.03;;;6.40;99.90;;;;;;4982657;28;20451;-74
2022/01/15 04:40:08;;;;;;;6.25;2.90;;;6.40;99.90;;;;;;4979485;28;20051;-74
2022/01/15 04:42:34;;;;;;;9.15;3.30;;;6.40;99.90;;;;;;4978355;28;20050;-74
2022/01/15 04:45:03;;;;;;;7.50;2.67;;;6.40;99.90;;;;;;5058358;28;20055;-74
2022/01/15 04:47:29;;;;;;;8.63;3.35;;;6.30;99.90;;;;;;4982035;28;20493;-74
2022/01/15 04:49:55;;;;;;;12.00;3.10;;;6.40;99.90;;;;;;4972809;28;20454;-74
2022/01/15 04:52:22;;;;;;;8.77;3.20;;;6.30;99.90;;;;;;4974944;28;20509;-75
2022/01/15 04:54:48;;;;;;;8.00;3.10;;;6.30;99.90;;;;;;4979382;28;20415;-74
2022/01/15 04:57:13;;;;;;;10.77;3.28;;;6.30;99.90;;;;;;4979160;28;20050;-74
2022/01/15 04:59:39;;;;;;;7.63;3.47;;;6.30;99.90;;;;;;4985813;28;20050;-74
2022/01/15 05:02:04;;;;;;;8.68;3.40;;;6.30;99.90;;;;;;4974569;28;20141;-74
2022/01/15 05:04:30;;;;;;;7.30;2.78;;;6.40;99.90;;;;;;4980463;28;20042;-74
2022/01/15 05:06:55;;;;;;;7.43;3.33;;;6.30;99.90;;;;;;4972275;28;20058;-74
2022/01/15 05:09:21;;;;;;;8.52;2.95;;;6.40;99.90;;;;;;4973950;28;20577;-75
2022/01/15 05:11:49;;;;;;;8.23;3.05;;;6.40;99.90;;;;;;4971905;28;20053;-75
2022/01/15 05:14:17;;;;;;;8.10;2.80;;;6.40;99.90;;;;;;4981218;28;20074;-74
2022/01/15 05:16:44;;;;;;;6.95;3.00;;;6.40;99.90;;;;;;4980796;28;20038;-74
2022/01/15 05:19:10;;;;;;;8.32;3.22;;;6.40;99.90;;;;;;4997541;28;20088;-74
2022/01/15 05:21:37;;;;;;;6.03;2.53;;;6.40;99.90;;;;;;4979769;28;20045;-74
2022/01/15 05:24:02;;;;;;;8.02;3.10;;;6.40;99.90;;;;;;4980604;28;20406;-74
2022/01/15 05:26:28;;;;;;;6.45;2.80;;;6.40;99.90;;;;;;4981902;28;20057;-74
2022/01/15 05:28:54;;;;;;;6.55;2.55;;;6.30;99.90;;;;;;4975971;28;20042;-74
2022/01/15 05:31:19;;;;;;;6.20;2.97;;;6.30;99.90;;;;;;4981461;28;20116;-74
2022/01/15 05:33:45;;;;;;;6.68;2.53;;;6.30;99.90;;;;;;4982625;28;20046;-74
2022/01/15 05:36:11;;;;;;;6.38;2.28;;;6.30;99.90;;;;;;4977452;28;20038;-74
2022/01/15 05:38:37;;;;;;;5.50;2.40;;;6.30;99.90;;;;;;4976780;28;20051;-75
2022/01/15 05:41:02;;;;;;;6.10;2.53;;;6.30;99.90;;;;;;4994874;28;20069;-74
2022/01/15 05:43:28;;;;;;;5.30;2.42;;;6.30;99.90;;;;;;4982788;28;20559;-75
2022/01/15 05:45:54;;;;;;;4.95;2.15;;;6.30;99.90;;;;;;5019486;28;20044;-74
2022/01/15 05:48:19;;;;;;;6.15;2.53;;;6.20;99.90;;;;;;4983093;28;20160;-74
2022/01/15 05:50:45;;;;;;;6.32;2.65;;;6.30;99.90;;;;;;4978916;28;20071;-74
2022/01/15 05:53:11;;;;;;;6.63;2.40;;;6.20;99.90;;;;;;4979085;28;20416;-75
2022/01/15 05:55:36;;;;;;;5.60;2.13;;;6.30;99.90;;;;;;4980009;28;20038;-74
2022/01/15 05:58:02;;;;;;;6.85;2.35;;;6.30;99.90;;;;;;4981506;28;20058;-74
2022/01/15 06:00:27;;;;;;;6.30;2.45;;;6.30;99.90;;;;;;4998119;28;20051;-74
2022/01/15 06:02:53;;;;;;;6.55;2.83;;;6.30;99.90;;;;;;4979109;28;20154;-75
2022/01/15 06:05:19;;;;;;;5.97;2.45;;;6.30;99.90;;;;;;4994514;28;20034;-74
2022/01/15 06:07:44;;;;;;;5.30;2.33;;;6.30;99.90;;;;;;4982972;28;20512;-74
2022/01/15 06:10:11;;;;;;;6.57;2.83;;;6.30;99.90;;;;;;4973079;28;20482;-74
2022/01/15 06:12:41;;;;;;;7.18;2.80;;;6.30;99.90;;;;;;4974798;28;20375;-75
2022/01/15 06:15:08;;;;;;;7.05;2.20;;;6.30;99.90;;;;;;4981242;28;20061;-75
2022/01/15 06:17:33;;;;;;;6.13;2.38;;;6.30;99.90;;;;;;4977259;28;20106;-75
2022/01/15 06:19:59;;;;;;;8.10;2.92;;;6.30;99.90;;;;;;4976078;28;20082;-74
2022/01/15 06:22:24;;;;;;;6.32;2.55;;;6.30;99.90;;;;;;4976903;28;20448;-74
2022/01/15 06:24:50;;;;;;;5.55;2.60;;;6.30;99.90;;;;;;4980559;28;20172;-75
2022/01/15 06:27:18;;;;;;;5.80;2.40;;;6.30;99.90;;;;;;4980119;28;20034;-75
2022/01/15 06:29:43;;;;;;;5.32;2.30;;;6.40;99.90;;;;;;4985505;28;20051;-74
2022/01/15 06:32:09;;;;;;;5.75;2.45;;;6.30;99.90;;;;;;4982815;28;20167;-75
2022/01/15 06:34:34;;;;;;;5.32;2.25;;;6.30;99.90;;;;;;4975610;28;20044;-74
2022/01/15 06:37:00;;;;;;;5.20;2.08;;;6.30;99.90;;;;;;4980536;28;22578;-74
2022/01/15 06:39:26;;;;;;;5.70;2.35;;;6.30;99.90;;;;;;4981067;28;20047;-74
2022/01/15 06:41:51;;;;;;;5.18;1.70;;;6.40;99.90;;;;;;4981880;28;20390;-74
2022/01/15 06:44:17;;;;;;;5.28;1.90;;;6.30;99.90;;;;;;4980329;28;20043;-75
2022/01/15 06:46:43;;;;;;;5.60;1.90;;;6.30;99.90;;;;;;4981425;28;20469;-74
2022/01/15 06:49:10;;;;;;;5.82;2.15;;;6.30;99.90;;;;;;4979118;28;20049;-74
2022/01/15 06:51:35;;;;;;;5.28;2.30;;;6.40;99.90;;;;;;4976489;28;20075;-74
2022/01/15 06:54:01;;;;;;;6.05;2.53;;;6.30;99.90;;;;;;4991062;28;20683;-74
2022/01/15 06:56:27;;;;;;;6.63;2.17;;;6.30;99.90;;;;;;4981771;28;20042;-74
2022/01/15 06:58:53;;;;;;;5.70;2.50;;;6.30;99.90;;;;;;4988566;28;20050;-74
2022/01/15 07:01:19;;;;;;;5.25;2.28;;;6.30;99.90;;;;;;5007518;28;20116;-74
2022/01/15 07:03:44;;;;;;;6.45;2.40;;;6.20;99.90;;;;;;4994165;28;20054;-75
2022/01/15 07:06:10;;;;;;;7.45;3.03;;;6.20;99.90;;;;;;4977242;28;20052;-75
2022/01/15 07:08:35;;;;;;;6.45;2.42;;;6.20;99.90;;;;;;4977087;28;20047;-74
2022/01/15 07:11:01;;;;;;;5.45;1.85;;;6.20;99.90;;;;;;5000957;28;20386;-74
2022/01/15 07:13:26;;;;;;;7.43;2.88;;;6.20;99.90;;;;;;4978572;28;20049;-73
2022/01/15 07:15:52;;;;;;;5.95;2.63;;;6.20;99.90;;;;;;4984670;28;20118;-74
2022/01/15 07:18:18;;;;;;;7.45;3.15;;;6.20;99.90;;;;;;4979363;28;20077;-74
2022/01/15 07:20:44;;;;;;;6.53;2.80;;;6.20;99.90;;;;;;4982059;28;20042;-74
2022/01/15 07:23:10;;;;;;;6.85;2.70;;;6.20;99.90;;;;;;4978609;28;20047;-74
2022/01/15 07:25:35;;;;;;;6.72;2.80;;;6.20;99.90;;;;;;4978419;28;20324;-74
2022/01/15 07:28:01;;;;;;;8.02;3.13;;;6.20;99.90;;;;;;4974538;28;20055;-74
2022/01/15 07:30:27;;;;;;;7.13;3.03;;;6.20;99.90;;;;;;4988551;28;20394;-74
2022/01/15 07:32:52;;;;;;;9.18;2.83;;;6.20;99.90;;;;;;4979274;28;20125;-74
2022/01/15 07:35:19;;;;;;;8.95;3.10;;;6.20;99.90;;;;;;4981890;28;20196;-75
2022/01/15 07:37:44;;;;;;;7.30;2.92;;;6.20;99.90;;;;;;4981178;28;20502;-74
2022/01/15 07:40:10;;;;;;;8.00;2.58;;;6.20;99.90;;;;;;4980180;28;20137;-75
2022/01/15 07:42:38;;;;;;;8.20;2.92;;;6.20;99.90;;;;;;4978411;28;20095;-75
2022/01/15 07:45:05;;;;;;;5.47;2.50;;;6.20;99.90;;;;;;4983690;28;20051;-75
2022/01/15 07:47:31;;;;;;;6.90;2.70;;;6.20;99.90;;;;;;4988467;28;20175;-75
2022/01/15 07:49:57;;;;;;;6.18;2.45;;;6.20;99.90;;;;;;4978842;28;20121;-74
2022/01/15 07:52:22;;;;;;;7.57;2.90;;;6.20;99.90;;;;;;4972137;28;20099;-74
2022/01/15 07:54:48;;;;;;;8.45;3.17;;;6.20;99.90;;;;;;4975436;28;20402;-78
2022/01/15 07:57:14;;;;;;;8.15;3.13;;;6.20;99.90;;;;;;4980908;28;20038;-74
2022/01/15 07:59:39;;;;;;;7.38;2.90;;;6.20;99.90;;;;;;4975893;28;20047;-76
2022/01/15 08:02:05;;;;;;;9.05;2.58;;;6.20;99.90;;;;;;4981406;28;20076;-74
2022/01/15 08:04:31;;;;;;;7.70;3.22;;;6.20;99.90;;;;;;4984432;28;20038;-75
2022/01/15 08:06:56;;;;;;;6.30;2.67;;;6.20;99.90;;;;;;4983032;28;20049;-75
2022/01/15 08:09:22;;;;;;;7.03;2.65;;;6.20;99.90;;;;;;4990707;28;20046;-75
2022/01/15 08:11:48;;;;;;;6.57;2.80;;;6.20;99.90;;;;;;4985801;28;20042;-75
2022/01/15 08:14:13;;;;;;;5.90;2.15;;;6.20;99.90;;;;;;4986299;28;20035;-75
2022/01/15 08:16:39;;;;;;;5.00;2.00;;;6.20;99.90;;;;;;4999724;28;20042;-75
2022/01/15 08:19:04;;;;;;;5.28;1.90;;;6.20;99.90;;;;;;4980433;28;20110;-75
2022/01/15 08:21:30;;;;;;;5.68;1.98;;;6.10;99.90;;;;;;4986116;28;21243;-74
2022/01/15 08:23:56;;;;;;;4.63;1.85;;;6.10;99.90;;;;;;4974443;28;20070;-73
2022/01/15 08:26:21;;;;;;;5.25;1.52;;;6.10;99.90;;;;;;4983944;28;20505;-74
2022/01/15 08:28:47;;;;;;;3.55;1.13;;;6.10;99.90;;;;;;4983250;28;20390;-75
2022/01/15 08:31:12;;;;;;;6.10;1.20;;;6.10;99.90;;;;;;4982773;28;20054;-75
2022/01/15 08:33:38;;;;;;;3.72;1.30;;;6.10;99.90;;;;;;5002146;28;20069;-75
2022/01/15 08:36:04;;;;;;;4.53;1.23;;;6.20;99.90;;;;;;4984286;28;20133;-75
2022/01/15 08:38:29;;;;;;;3.65;1.48;;;6.10;99.90;;;;;;4984738;28;20034;-75
2022/01/15 08:40:55;;;;;;;5.45;1.48;;;6.10;99.90;;;;;;4983524;28;20120;-75
2022/01/15 08:43:21;;;;;;;3.53;1.10;;;6.10;99.90;;;;;;4984989;28;20431;-74
2022/01/15 08:45:47;;;;;;;5.78;1.40;;;6.10;99.90;;;;;;4983498;28;20084;-75
2022/01/15 08:48:19;;;;;;;4.68;1.60;;;6.10;99.90;;;;;;4985077;28;20370;-81
2022/01/15 08:50:46;;;;;;;5.55;1.70;;;6.10;99.90;;;;;;4985117;28;20043;-75
2022/01/15 08:53:13;;;;;;;5.07;1.52;;;6.10;99.90;;;;;;4977801;28;20065;-75
2022/01/15 08:55:39;;;;;;;5.55;1.90;;;6.10;99.90;;;;;;4983118;28;20946;-74
2022/01/15 08:58:05;;;;;;;6.47;2.40;;;6.10;99.90;;;;;;4988108;28;20046;-75
2022/01/15 09:00:32;;;;;;;8.57;2.10;;;6.20;99.90;;;;;;4981067;28;20414;-75
2022/01/15 09:02:57;;;;;;;6.35;2.70;;;6.20;99.90;;;;;;4979229;28;20141;-75
2022/01/15 09:05:24;;;;;;;7.53;3.30;;;6.20;99.90;;;;;;5002175;28;20131;-76
2022/01/15 09:07:51;;;;;;;10.23;4.40;;;6.20;99.90;;;;;;4982871;28;20058;-74
2022/01/15 09:10:17;;;;;;;9.10;3.95;;;6.10;99.90;;;;;;4987717;28;20042;-75
2022/01/15 09:12:43;;;;;;;10.52;4.93;;;6.10;99.90;;;;;;4978841;28;20486;-76
2022/01/15 09:15:10;;;;;;;12.00;4.22;;;6.10;99.90;;;;;;4978378;28;20127;-75
2022/01/15 09:17:35;;;;;;;11.73;5.57;;;6.10;99.90;;;;;;4982452;28;20590;-76
2022/01/15 09:20:01;;;;;;;11.88;5.53;;;6.10;99.90;;;;;;4978871;28;20137;-75
2022/01/15 09:22:26;;;;;;;12.95;5.70;;;6.10;99.90;;;;;;4977999;28;20101;-75
2022/01/15 09:24:52;;;;;;;11.90;5.25;;;6.20;99.90;;;;;;4979861;28;20078;-76
2022/01/15 09:30:17;;;;;;;13.50;6.25;;;6.10;99.90;;;;;;5005580;28;20050;-75
2022/01/15 09:32:47;;;;;;;12.70;6.20;;;6.20;99.90;;;;;;4978925;28;20410;-74
2022/01/15 09:35:15;;;;;;;11.18;5.53;;;6.20;99.90;;;;;;4981741;28;20425;-74
2022/01/15 09:37:42;;;;;;;15.52;6.75;;;6.20;99.90;;;;;;4980157;28;20059;-73
2022/01/15 09:40:09;;;;;;;12.48;6.07;;;6.20;99.90;;;;;;4983888;28;20835;-75
2022/01/15 09:42:40;;;;;;;13.32;6.10;;;6.20;99.90;;;;;;4977305;28;20077;-74
2022/01/15 09:45:08;;;;;;;14.55;6.90;;;6.20;99.90;;;;;;4979975;28;20058;-74
2022/01/15 09:47:34;;;;;;;15.90;7.15;;;6.20;99.90;;;;;;4980572;28;20137;-74
2022/01/15 09:50:02;;;;;;;16.05;6.50;;;6.20;99.90;;;;;;4980612;28;20046;-74
2022/01/15 09:52:30;;;;;;;16.20;7.25;;;6.20;99.90;;;;;;4982320;28;20678;-74
2022/01/15 09:54:55;;;;;;;15.60;7.70;;;6.20;99.90;;;;;;5001027;28;20049;-75
2022/01/15 09:57:21;;;;;;;16.85;7.75;;;6.20;99.90;;;;;;4989346;28;20046;-77
2022/01/15 09:59:47;;;;;;;14.70;7.53;;;6.20;99.90;;;;;;4983137;28;20062;-79
2022/01/15 10:02:13;;;;;;;15.52;6.80;;;6.30;99.90;;;;;;4983824;28;20046;-77
2022/01/15 10:04:38;;;;;;;15.23;7.28;;;6.30;99.90;;;;;;4983551;28;20063;-79
2022/01/15 10:07:22;;;;;;;15.75;7.43;;;6.20;99.90;;;;;;4986716;28;20078;-77
2022/01/15 10:09:50;;;;;;;15.25;7.30;;;6.30;99.90;;;;;;4984208;28;20043;-77
2022/01/15 10:12:31;;;;;;;13.95;7.45;;;6.40;99.90;;;;;;4975708;28;20054;-75
2022/01/15 10:15:06;;;;;;;15.40;6.53;;;6.30;99.90;;;;;;4996720;28;20042;-74
2022/01/15 10:17:34;;;;;;;13.63;6.70;;;6.30;99.90;;;;;;4978264;28;20059;-74
2022/01/15 10:20:08;;;;;;;12.20;5.78;;;6.30;99.90;;;;;;4978276;28;20096;-73
2022/01/15 10:22:37;;;;;;;14.32;5.35;;;6.30;99.90;;;;;;4988766;28;20411;-73
2022/01/15 10:25:07;;;;;;;11.93;6.40;;;6.30;99.90;;;;;;4983095;28;20480;-73
2022/01/15 10:27:39;;;;;;;15.25;6.57;;;6.30;99.90;;;;;;4994227;28;20113;-73
2022/01/15 10:30:23;;;;;;;13.50;6.50;;;6.30;99.90;;;;;;4997787;28;20099;-72
2022/01/15 10:32:57;;;;;;;11.82;6.13;;;6.30;99.90;;;;;;4996711;28;20054;-73
2022/01/15 10:35:26;;;;;;;13.57;5.75;;;6.30;99.90;;;;;;4980932;28;20046;-73
2022/01/15 10:38:00;;;;;;;13.18;6.28;;;6.30;99.90;;;;;;4993673;28;20413;-73
2022/01/15 10:40:37;;;;;;;12.93;6.10;;;6.20;99.90;;;;;;4985065;28;20069;-73
2022/01/15 10:43:02;;;;;;;13.48;6.55;;;6.20;99.90;;;;;;4983765;28;20047;-73
2022/01/15 10:45:31;;;;;;;14.02;6.35;;;6.20;99.90;;;;;;4983246;28;20057;-73
2022/01/15 10:48:01;;;;;;;12.65;5.75;;;6.20;99.90;;;;;;4985990;28;20481;-74
2022/01/15 10:50:37;;;;;;;14.73;6.65;;;6.10;99.90;;;;;;4981160;28;20055;-73
2022/01/15 10:53:09;;;;;;;17.98;7.05;;;6.10;99.90;;;;;;5016339;28;20050;-72
2022/01/15 10:55:36;;;;;;;14.60;7.28;;;6.10;99.90;;;;;;4984868;28;20389;-73
2022/01/15 10:58:04;;;;;;;14.43;6.95;;;6.10;99.90;;;;;;4990559;28;20077;-74
2022/01/15 11:00:36;;;;;;;16.50;7.55;;;6.10;99.90;;;;;;4983927;28;20892;-73
2022/01/15 11:03:14;;;;;;;15.73;7.32;;;6.10;99.90;;;;;;4988530;28;20607;-72
2022/01/15 11:05:48;;;;;;;14.63;6.90;;;6.10;99.90;;;;;;4992478;28;20050;-73
2022/01/15 11:08:22;;;;;;;16.95;7.97;;;6.10;99.90;;;;;;4990589;28;20046;-74
2022/01/15 11:10:51;;;;;;;17.33;8.38;;;6.10;99.90;;;;;;4985363;28;20053;-73
2022/01/15 11:13:39;;;;;;;16.08;7.80;;;6.10;99.90;;;;;;4983768;28;20082;-73
2022/01/15 11:16:13;;;;;;;17.60;9.40;;;6.10;99.90;;;;;;4984999;28;20050;-74
2022/01/15 11:18:41;;;;;;;15.10;7.82;;;6.10;99.90;;;;;;4996973;28;20056;-73
2022/01/15 11:21:09;;;;;;;16.42;8.52;;;6.10;99.90;;;;;;5005473;28;20096;-74
2022/01/15 11:23:37;;;;;;;18.65;8.45;;;6.00;99.90;;;;;;5036656;28;20044;-73
2022/01/15 11:26:07;;;;;;;17.23;8.75;;;6.00;99.90;;;;;;4992482;28;20065;-74
2022/01/15 11:28:33;;;;;;;17.80;8.82;;;6.00;99.90;;;;;;4988536;28;20443;-73
2022/01/15 11:31:03;;;;;;;17.35;9.82;;;6.00;99.90;;;;;;4993571;28;20058;-74
2022/01/15 11:33:32;;;;;;;15.65;8.40;;;6.00;99.90;;;;;;4980070;28;20095;-73
2022/01/15 11:35:58;;;;;;;17.42;9.13;;;6.00;99.90;;;;;;4984410;28;20054;-74
2022/01/15 11:38:39;;;;;;;18.48;8.65;;;6.00;99.90;;;;;;4982502;28;20271;-73
2022/01/15 11:41:25;;;;;;;17.23;9.38;;;6.00;99.90;;;;;;4979379;28;20046;-77
2022/01/15 11:44:03;;;;;;;16.17;8.45;;;6.00;99.90;;;;;;4977581;28;20049;-78
2022/01/15 11:46:40;;;;;;;18.38;9.38;;;6.00;99.90;;;;;;4976717;28;20055;-79
2022/01/15 11:49:28;;;;;;;17.15;9.95;;;5.90;99.90;;;;;;4976057;28;20042;-77
2022/01/15 11:52:04;;;;;;;16.10;8.77;;;5.90;99.90;;;;;;4981984;28;20076;-78
2022/01/15 11:54:30;;;;;;;17.35;9.02;;;5.90;99.90;;;;;;4981844;28;20485;-78
2022/01/15 11:56:55;;;;;;;19.48;10.10;;;6.00;99.90;;;;;;4981380;28;20046;-78
2022/01/15 11:59:33;;;;;;;19.15;10.35;;;5.90;99.90;;;;;;4977599;28;20565;-78
2022/01/15 12:02:02;;;;;;;19.92;9.93;;;5.90;99.90;;;;;;4997702;28;20051;-77
2022/01/15 12:04:38;;;;;;;19.95;10.70;;;5.90;99.90;;;;;;4980690;28;20447;-78
2022/01/15 12:07:06;;;;;;;20.10;10.05;;;5.90;99.90;;;;;;4981101;28;20183;-79
2022/01/15 12:09:39;;;;;;;22.02;11.00;;;5.90;99.90;;;;;;4983733;28;20505;-78
2022/01/15 12:12:34;;;;;;;20.80;10.90;;;5.90;99.90;;;;;;4974618;28;20050;-78
2022/01/15 12:15:01;;;;;;;;;;;5.90;99.90;;;;;;5005303;28;20046;-79
2022/01/15 12:17:44;;;;;;;23.50;12.57;;;6.00;99.90;;;;;;4992469;28;19929;-78
2022/01/15 12:20:20;;;;;;;22.17;12.30;;;6.00;99.90;;;;;;4985850;28;20111;-78
2022/01/15 12:22:51;;;;;;;26.60;14.43;;;5.90;99.90;;;;;;4985267;28;20050;-80
2022/01/15 12:25:16;;;;;;;25.67;12.43;;;6.00;99.90;;;;;;4991984;28;20112;-79
2022/01/15 12:27:43;;;;;;;22.38;12.40;;;5.90;99.90;;;;;;4983232;28;20435;-77
2022/01/15 12:30:20;;;;;;;28.55;12.27;;;5.90;99.90;;;;;;4982796;28;20453;-80
2022/01/15 12:32:49;;;;;;;27.77;15.75;;;5.90;99.90;;;;;;4974208;28;20054;-80
2022/01/15 12:35:22;;;;;;;24.88;13.25;;;7.00;99.90;;;;;;4975577;28;20055;-80
2022/01/15 12:38:07;;;;;;;25.75;13.50;;;5.90;99.90;;;;;;4973825;28;20071;-80
2022/01/15 12:40:40;;;;;;;;;;;5.90;99.90;;;;;;5009483;28;20165;-80
2022/01/15 12:43:19;;;;;;;24.10;13.55;;;5.90;99.90;;;;;;4982095;28;20020;-80
2022/01/15 12:45:51;;;;;;;25.38;12.25;;;6.00;99.90;;;;;;4992017;28;20054;-80
2022/01/15 12:48:20;;;;;;;20.05;10.40;;;5.90;99.90;;;;;;5025204;28;20394;-80
2022/01/15 12:51:01;;;;;;;22.02;12.07;;;5.90;99.90;;;;;;4973778;28;20053;-80
2022/01/15 12:53:35;;;;;;;21.52;10.93;;;5.90;99.90;;;;;;4976946;28;20047;-81
2022/01/15 12:56:12;;;;;;;23.77;12.90;;;5.90;99.90;;;;;;5007095;28;20069;-82
2022/01/15 12:58:41;;;;;;;22.77;12.23;;;6.00;99.90;;;;;;5023199;28;20079;-82
2022/01/15 13:01:08;;;;;;;23.98;12.70;;;6.00;99.90;;;;;;4980381;28;20082;-82
2022/01/15 13:03:36;;;;;;;24.10;13.25;;;6.10;99.90;;;;;;4990480;28;20059;-83
2022/01/15 13:06:04;;;;;;;23.02;13.02;;;6.00;99.90;;;;;;4986761;28;20557;-82
2022/01/15 13:08:36;;;;;;;26.38;14.80;;;6.00;99.90;;;;;;4975454;28;20496;-82
2022/01/15 13:11:30;;;;;;;25.77;13.13;;;6.00;99.90;;;;;;4987282;28;20076;-79